createdAt,value
2018-10-15T00:02:07.640Z,96711.13
2018-10-15T00:04:35.075Z,96714.86
2018-10-15T00:07:02.418Z,96715.19
2018-10-15T00:09:30.397Z,96720.16
2018-10-15T00:11:57.859Z,96725.05
2018-10-15T00:14:25.722Z,96714.22
2018-10-15T00:16:53.085Z,96712.60
2018-10-15T00:19:20.486Z,96711.62
2018-10-15T00:21:47.858Z,96709.19
2018-10-15T00:24:15.230Z,96714.23
2018-10-15T00:26:42.995Z,96713.03
2018-10-15T00:29:10.434Z,96711.49
2018-10-15T00:31:37.912Z,96703.98
2018-10-15T00:34:05.324Z,96718.04
2018-10-15T00:36:32.779Z,96715.17
2018-10-15T00:39:00.193Z,96716.98
2018-10-15T00:41:27.553Z,96711.14
2018-10-15T00:43:55.003Z,96709.47
2018-10-15T00:46:22.445Z,96710.92
2018-10-15T00:48:49.973Z,96705.42
2018-10-15T00:51:17.393Z,96710.22
2018-10-15T00:53:44.848Z,96710.03
2018-10-15T00:56:12.355Z,96715.25
2018-10-15T00:58:39.858Z,96718.28
2018-10-15T01:01:07.290Z,96709.91
2018-10-15T01:03:34.673Z,96698.43
2018-10-15T01:06:02.138Z,96709.27
2018-10-15T01:08:29.526Z,96711.53
2018-10-15T01:10:56.933Z,96701.73
2018-10-15T01:13:24.317Z,96710.22
2018-10-15T01:15:51.937Z,96706.94
2018-10-15T01:18:19.351Z,96709.32
2018-10-15T01:20:46.769Z,96714.71
2018-10-15T01:23:14.206Z,96713.17
2018-10-15T01:25:41.669Z,96713.47
2018-10-15T01:28:09.097Z,96705.58
2018-10-15T01:30:36.469Z,96699.40
2018-10-15T01:33:04.163Z,96711.91
2018-10-15T01:35:31.590Z,96716.73
2018-10-15T01:37:58.957Z,96720.05
2018-10-15T01:40:26.419Z,96712.84
2018-10-15T01:42:53.851Z,96717.99
2018-10-15T01:45:21.239Z,96719.48
2018-10-15T01:47:48.659Z,96721.53
2018-10-15T01:50:16.128Z,96718.88
2018-10-15T01:52:43.579Z,96723.42
2018-10-15T01:55:10.990Z,96724.40
2018-10-15T01:57:38.658Z,96724.58
2018-10-15T02:00:07.222Z,96718.64
2018-10-15T02:02:34.598Z,96721.16
2018-10-15T02:05:02.232Z,96735.75
2018-10-15T02:07:29.865Z,96737.60
2018-10-15T02:09:57.304Z,96729.14
2018-10-15T02:12:24.738Z,96728.95
2018-10-15T02:14:52.162Z,96735.62
2018-10-15T02:17:19.551Z,96734.52
2018-10-15T02:32:46.559Z,96733.74
2018-10-15T02:35:14.268Z,96729.50
2018-10-15T02:37:41.760Z,96731.56
2018-10-15T02:40:09.293Z,96728.45
2018-10-15T02:42:37.045Z,96721.19
2018-10-15T02:45:05.747Z,96722.73
2018-10-15T02:47:33.196Z,96735.00
2018-10-15T02:50:00.678Z,96728.81
2018-10-15T02:52:28.094Z,96731.45
2018-10-15T02:54:55.448Z,96736.41
2018-10-15T02:57:22.837Z,96747.17
2018-10-15T02:59:50.196Z,96734.75
2018-10-15T03:02:17.631Z,96740.84
2018-10-15T03:04:45.017Z,96742.05
2018-10-15T03:07:12.435Z,96744.39
2018-10-15T03:09:39.853Z,96749.59
2018-10-15T03:12:07.229Z,96745.95
2018-10-15T03:14:34.663Z,96634.91
2018-10-15T03:17:02.130Z,96745.89
2018-10-15T03:19:29.606Z,96745.06
2018-10-15T03:21:56.991Z,96751.97
2018-10-15T03:24:24.499Z,96750.84
2018-10-15T03:26:52.020Z,96744.88
2018-10-15T03:29:19.413Z,96742.35
2018-10-15T03:31:46.909Z,96742.41
2018-10-15T03:34:14.311Z,96744.28
2018-10-15T03:36:41.685Z,96742.73
2018-10-15T03:39:09.890Z,96753.17
2018-10-15T03:41:37.228Z,96743.27
2018-10-15T03:44:05.353Z,96749.89
2018-10-15T03:46:32.856Z,96746.62
2018-10-15T03:49:00.262Z,96753.46
2018-10-15T03:51:27.772Z,96754.37
2018-10-15T03:53:55.341Z,96753.55
2018-10-15T03:56:22.786Z,96759.81
2018-10-15T03:58:50.141Z,96766.59
2018-10-15T04:01:17.696Z,96771.98
2018-10-15T04:03:45.248Z,96778.92
2018-10-15T04:06:12.639Z,96784.63
2018-10-15T04:08:40.154Z,96793.06
2018-10-15T04:11:07.883Z,96790.83
2018-10-15T04:13:35.329Z,96786.40
2018-10-15T04:16:02.789Z,96784.60
2018-10-15T04:18:30.208Z,96791.75
2018-10-15T04:20:57.659Z,96785.79
2018-10-15T04:23:25.135Z,96788.75
2018-10-15T04:25:52.477Z,96787.02
2018-10-15T04:28:19.828Z,96782.18
2018-10-15T04:30:47.258Z,96782.89
2018-10-15T04:33:14.634Z,96780.66
2018-10-15T04:35:41.948Z,96782.67
2018-10-15T04:38:09.361Z,96772.52
2018-10-15T04:40:36.802Z,96780.38
2018-10-15T04:56:03.727Z,96778.58
2018-10-15T04:58:31.093Z,96784.87
2018-10-15T05:00:58.723Z,96786.43
2018-10-15T05:03:26.147Z,96786.28
2018-10-15T05:05:53.485Z,96776.50
2018-10-15T05:08:20.847Z,96777.44
2018-10-15T05:10:48.177Z,96779.38
2018-10-15T05:13:15.516Z,96789.27
2018-10-15T05:15:42.924Z,96793.60
2018-10-15T05:18:10.384Z,96800.86
2018-10-15T05:20:37.701Z,96798.56
2018-10-15T05:23:05.249Z,96805.08
2018-10-15T05:25:32.599Z,96808.09
2018-10-15T05:28:00.003Z,96814.06
2018-10-15T05:30:27.582Z,96810.75
2018-10-15T05:32:54.873Z,96810.13
2018-10-15T05:35:22.257Z,96808.08
2018-10-15T05:37:49.671Z,96816.93
2018-10-15T05:40:17.131Z,96813.89
2018-10-15T05:42:44.459Z,96822.14
2018-10-15T05:45:12.589Z,96821.41
2018-10-15T05:47:40.317Z,96823.77
2018-10-15T05:50:09.413Z,96827.31
2018-10-15T05:52:36.875Z,96827.86
2018-10-15T05:55:05.185Z,96831.02
2018-10-15T05:57:32.573Z,96829.53
2018-10-15T05:59:59.929Z,96836.26
2018-10-15T06:02:27.321Z,96832.89
2018-10-15T06:04:54.733Z,96834.00
2018-10-15T06:07:22.085Z,96832.00
2018-10-15T06:09:49.516Z,96833.60
2018-10-15T06:12:16.991Z,96832.69
2018-10-15T06:14:44.348Z,96834.00
2018-10-15T06:17:11.717Z,96839.44
2018-10-15T06:19:39.128Z,96828.55
2018-10-15T06:22:06.532Z,96838.89
2018-10-15T06:24:33.881Z,96842.75
2018-10-15T06:27:01.321Z,96844.01
2018-10-15T06:29:28.722Z,96846.70
2018-10-15T06:31:56.071Z,96847.55
2018-10-15T06:34:23.456Z,96851.83
2018-10-15T06:36:50.789Z,96861.03
2018-10-15T06:39:18.147Z,96855.34
2018-10-15T06:41:45.512Z,96855.25
2018-10-15T06:44:12.843Z,96850.47
2018-10-15T06:46:40.157Z,96846.34
2018-10-15T06:49:07.590Z,96853.38
2018-10-15T06:51:34.950Z,96858.73
2018-10-15T06:54:02.370Z,96853.80
2018-10-15T06:56:29.851Z,96856.41
2018-10-15T06:58:57.262Z,96856.14
2018-10-15T07:01:24.678Z,96857.41
2018-10-15T07:03:52.107Z,96857.42
2018-10-15T07:06:19.581Z,96858.30
2018-10-15T07:08:46.993Z,96868.23
2018-10-15T07:11:14.428Z,96863.73
2018-10-15T07:13:41.900Z,96863.41
2018-10-15T07:16:09.380Z,96862.95
2018-10-15T07:18:36.767Z,96869.03
2018-10-15T07:21:04.247Z,96876.32
2018-10-15T07:23:31.609Z,96866.88
2018-10-15T07:25:58.985Z,96862.39
2018-10-15T07:28:26.517Z,96863.33
2018-10-15T07:30:53.903Z,96860.61
2018-10-15T07:33:21.246Z,96839.45
2018-10-15T07:35:48.683Z,96851.78
2018-10-15T07:38:16.090Z,96865.58
2018-10-15T07:40:43.465Z,96861.48
2018-10-15T07:43:10.863Z,96865.74
2018-10-15T07:45:38.233Z,96871.63
2018-10-15T07:48:05.750Z,96873.09
2018-10-15T07:50:33.054Z,96866.86
2018-10-15T07:53:00.546Z,96871.40
2018-10-15T07:55:27.972Z,96873.20
2018-10-15T07:57:55.264Z,96873.60
2018-10-15T08:00:23.983Z,96825.22
2018-10-15T08:02:51.605Z,96873.22
2018-10-15T08:05:19.150Z,96866.28
2018-10-15T08:07:46.965Z,96869.49
2018-10-15T08:10:14.393Z,96873.58
2018-10-15T08:12:42.085Z,96869.18
2018-10-15T08:15:10.856Z,96869.50
2018-10-15T08:17:38.261Z,96865.96
2018-10-15T08:20:07.637Z,96866.22
2018-10-15T08:22:34.935Z,96863.83
2018-10-15T08:25:02.411Z,96865.60
2018-10-15T08:27:29.750Z,96869.42
2018-10-15T08:29:57.380Z,96861.39
2018-10-15T08:32:24.789Z,96869.03
2018-10-15T08:34:52.334Z,96865.36
2018-10-15T08:37:19.573Z,96868.72
2018-10-15T08:39:46.965Z,96865.39
2018-10-15T08:42:14.463Z,96867.58
2018-10-15T08:44:41.771Z,96816.56
2018-10-15T08:47:09.184Z,96869.55
2018-10-15T08:49:36.562Z,96867.77
2018-10-15T08:52:04.034Z,96867.53
2018-10-15T08:54:31.434Z,96866.07
2018-10-15T08:56:58.884Z,96861.73
2018-10-15T08:59:26.365Z,96865.34
2018-10-15T09:01:53.760Z,96867.19
2018-10-15T09:04:22.175Z,96861.39
2018-10-15T09:06:49.709Z,96856.92
2018-10-15T09:09:17.236Z,96857.93
2018-10-15T09:11:44.342Z,96863.96
2018-10-15T09:14:11.870Z,96868.45
2018-10-15T09:16:39.218Z,96865.70
2018-10-15T09:19:06.610Z,96851.09
2018-10-15T09:21:34.288Z,96861.91
2018-10-15T09:24:01.671Z,96861.92
2018-10-15T09:26:29.638Z,96857.19
2018-10-15T09:28:57.388Z,96851.92
2018-10-15T09:31:24.801Z,96858.55
2018-10-15T09:33:52.145Z,96855.36
2018-10-15T09:36:19.757Z,96860.29
2018-10-15T09:38:47.247Z,96864.09
2018-10-15T09:41:14.598Z,96866.43
2018-10-15T09:43:41.974Z,96861.44
2018-10-15T09:46:09.269Z,96853.95
2018-10-15T09:48:36.742Z,96854.83
2018-10-15T09:51:04.284Z,96846.81
2018-10-15T09:53:31.866Z,96852.42
2018-10-15T09:55:59.319Z,96849.42
2018-10-15T09:58:26.698Z,96848.13
2018-10-15T10:00:59.740Z,96840.53
2018-10-15T10:03:27.286Z,96838.30
2018-10-15T10:05:54.719Z,96836.59
2018-10-15T10:08:22.265Z,96834.22
2018-10-15T10:10:49.668Z,96831.34
2018-10-15T10:13:17.047Z,96827.53
2018-10-15T10:15:44.466Z,96834.27
2018-10-15T10:18:11.988Z,96824.70
2018-10-15T10:20:39.310Z,96826.95
2018-10-15T10:23:06.794Z,96821.99
2018-10-15T10:25:34.198Z,96815.31
2018-10-15T10:28:01.651Z,96815.45
2018-10-15T10:30:29.072Z,96815.08
2018-10-15T10:32:56.569Z,96812.30
2018-10-15T10:35:48.347Z,96815.80
2018-10-15T10:38:23.329Z,96815.23
2018-10-15T10:40:50.888Z,96812.23
2018-10-15T10:43:18.183Z,96805.27
2018-10-15T10:45:45.797Z,96802.02
2018-10-15T10:48:13.180Z,96804.33
2018-10-15T10:50:40.602Z,96798.02
2018-10-15T10:53:08.455Z,96800.10
2018-10-15T10:55:35.854Z,96799.53
2018-10-15T10:58:03.305Z,96794.21
2018-10-15T11:00:30.645Z,96792.58
2018-10-15T11:02:58.074Z,96795.48
2018-10-15T11:05:25.714Z,96793.45
2018-10-15T11:07:53.110Z,96793.56
2018-10-15T11:10:20.522Z,96791.03
2018-10-15T11:12:48.046Z,96785.89
2018-10-15T11:15:15.451Z,96778.79
2018-10-15T11:17:42.916Z,96771.58
2018-10-15T11:20:10.389Z,96770.41
2018-10-15T11:22:37.881Z,96782.23
2018-10-15T11:25:05.474Z,96785.14
2018-10-15T11:27:32.856Z,96780.41
2018-10-15T11:30:00.496Z,96778.33
2018-10-15T11:32:27.838Z,96776.41
2018-10-15T11:34:55.336Z,96779.21
2018-10-15T11:37:22.892Z,96777.32
2018-10-15T11:39:50.307Z,96773.09
2018-10-15T11:42:17.822Z,96777.16
2018-10-15T11:44:45.214Z,96773.53
2018-10-15T11:47:12.930Z,96774.02
2018-10-15T11:49:40.354Z,96767.81
2018-10-15T11:52:07.837Z,96768.45
2018-10-15T11:54:35.249Z,96774.00
2018-10-15T11:57:02.676Z,96770.31
2018-10-15T11:59:30.031Z,96761.14
2018-10-15T12:01:57.462Z,96755.97
2018-10-15T12:04:24.980Z,96758.50
2018-10-15T12:06:52.378Z,96757.77
2018-10-15T12:09:19.845Z,96764.13
2018-10-15T12:11:47.252Z,96764.08
2018-10-15T12:14:14.657Z,96757.91
2018-10-15T12:16:42.083Z,96756.98
2018-10-15T12:19:09.566Z,96753.32
2018-10-15T12:21:36.964Z,96755.69
2018-10-15T12:24:04.404Z,96754.52
2018-10-15T12:26:31.774Z,96752.81
2018-10-15T12:28:59.219Z,96752.33
2018-10-15T12:31:26.703Z,96757.86
2018-10-15T12:33:54.086Z,96753.66
2018-10-15T12:36:21.535Z,96752.66
2018-10-15T12:38:48.984Z,96753.22
2018-10-15T12:41:16.530Z,96757.58
2018-10-15T12:43:44.017Z,96754.58
2018-10-15T12:46:11.456Z,96747.11
2018-10-15T12:48:38.900Z,96753.26
2018-10-15T12:51:06.383Z,96751.11
2018-10-15T12:53:33.848Z,96748.23
2018-10-15T12:56:01.198Z,96755.56
2018-10-15T12:58:28.614Z,96749.12
2018-10-15T13:00:56.002Z,96753.11
2018-10-15T13:03:23.454Z,96757.14
2018-10-15T13:05:50.837Z,96751.77
2018-10-15T13:08:18.275Z,96748.26
2018-10-15T13:10:45.672Z,96757.23
2018-10-15T13:13:13.045Z,96759.43
2018-10-15T13:15:40.415Z,96750.08
2018-10-15T13:18:07.824Z,96749.91
2018-10-15T13:20:35.360Z,96747.78
2018-10-15T13:23:02.766Z,96756.16
2018-10-15T13:25:30.286Z,96757.95
2018-10-15T13:27:57.759Z,96756.48
2018-10-15T13:30:25.310Z,96761.66
2018-10-15T13:32:52.733Z,96756.42
2018-10-15T13:35:20.218Z,96761.57
2018-10-15T13:37:47.617Z,96764.13
2018-10-15T13:40:15.062Z,96759.43
2018-10-15T13:42:42.559Z,96765.28
2018-10-15T13:45:11.293Z,96771.68
2018-10-15T13:47:38.758Z,96771.72
2018-10-15T13:50:07.333Z,96766.63
2018-10-15T13:52:34.896Z,96767.66
2018-10-15T13:55:02.654Z,96762.94
2018-10-15T13:57:30.028Z,96770.70
2018-10-15T13:59:57.523Z,96769.98
2018-10-15T14:02:24.889Z,96775.36
2018-10-15T14:04:52.345Z,96775.22
2018-10-15T14:07:19.735Z,96778.32
2018-10-15T14:09:47.139Z,96772.91
2018-10-15T14:12:14.507Z,96772.32
2018-10-15T14:14:41.861Z,96781.95
2018-10-15T14:17:09.480Z,96782.97
2018-10-15T14:19:36.790Z,96782.85
2018-10-15T14:22:04.431Z,96777.30
2018-10-15T14:24:31.782Z,96776.67
2018-10-15T14:26:59.160Z,96773.07
2018-10-15T14:29:26.637Z,96770.48
2018-10-15T14:31:54.060Z,96772.95
2018-10-15T14:34:21.422Z,96767.94
2018-10-15T14:36:48.942Z,96772.80
2018-10-15T14:39:16.330Z,96780.14
2018-10-15T14:41:43.719Z,96773.19
2018-10-15T14:44:11.143Z,96771.78
2018-10-15T14:46:38.506Z,96774.77
2018-10-15T14:49:05.890Z,96775.13
2018-10-15T14:51:33.265Z,96777.94
2018-10-15T14:54:00.595Z,96784.77
2018-10-15T14:56:28.115Z,96783.21
2018-10-15T14:58:55.452Z,96778.16
2018-10-15T15:01:22.891Z,96784.42
2018-10-15T15:03:50.654Z,96787.27
2018-10-15T15:06:18.034Z,96785.46
2018-10-15T15:08:45.386Z,96785.45
2018-10-15T15:11:24.066Z,96785.82
2018-10-15T15:14:07.544Z,96794.34
2018-10-15T15:16:35.018Z,96792.86
2018-10-15T15:19:02.366Z,96793.27
2018-10-15T15:21:29.802Z,96797.55
2018-10-15T15:23:57.165Z,96798.50
2018-10-15T15:26:24.512Z,96793.53
2018-10-15T15:28:51.870Z,96796.74
2018-10-15T15:31:19.343Z,96801.45
2018-10-15T15:33:46.707Z,96799.54
2018-10-15T15:36:14.070Z,96799.91
2018-10-15T15:38:41.452Z,96783.77
2018-10-15T15:41:08.789Z,96793.89
2018-10-15T15:43:36.231Z,96791.75
2018-10-15T15:46:03.698Z,96793.54
2018-10-15T15:48:31.054Z,96805.67
2018-10-15T15:50:58.381Z,96803.80
2018-10-15T15:53:26.103Z,96800.48
2018-10-15T15:55:54.656Z,96812.42
2018-10-15T15:58:22.553Z,96811.21
2018-10-15T16:00:50.270Z,96809.92
2018-10-15T16:03:17.715Z,96810.50
2018-10-15T16:05:48.748Z,96811.68
2018-10-15T16:08:17.007Z,96808.77
2018-10-15T16:10:44.608Z,96807.59
2018-10-15T16:13:12.027Z,96812.58
2018-10-15T16:15:39.387Z,96819.72
2018-10-15T16:18:06.735Z,96824.70
2018-10-15T16:20:34.288Z,96822.50
2018-10-15T16:23:01.763Z,96820.27
2018-10-15T16:25:29.229Z,96824.91
2018-10-15T16:27:56.739Z,96823.70
2018-10-15T16:30:24.165Z,96819.80
2018-10-15T16:32:51.591Z,96821.05
2018-10-15T16:35:18.997Z,96828.61
2018-10-15T16:37:46.445Z,96831.45
2018-10-15T16:40:13.939Z,96831.20
2018-10-15T16:42:41.828Z,96836.23
2018-10-15T16:45:11.084Z,96841.16
2018-10-15T16:47:38.973Z,96840.08
2018-10-15T16:50:08.704Z,96838.59
2018-10-15T16:52:36.773Z,96842.60
2018-10-15T16:55:05.291Z,96839.16
2018-10-15T16:57:32.945Z,96847.31
2018-10-15T17:00:00.409Z,96852.09
2018-10-15T17:02:27.825Z,96846.39
2018-10-15T17:04:55.408Z,96850.27
2018-10-15T17:07:22.832Z,96854.34
2018-10-15T17:09:50.265Z,96847.30
2018-10-15T17:12:22.914Z,96850.03
2018-10-15T17:14:50.326Z,96853.58
2018-10-15T17:17:17.781Z,96847.58
2018-10-15T17:19:45.199Z,96849.84
2018-10-15T17:22:12.584Z,96847.78
2018-10-15T17:24:40.046Z,96855.16
2018-10-15T17:27:07.471Z,96849.45
2018-10-15T17:29:35.053Z,96742.45
2018-10-15T17:32:02.446Z,96854.97
2018-10-15T17:34:29.849Z,96859.19
2018-10-15T17:36:57.544Z,96857.85
2018-10-15T17:39:25.038Z,96856.87
2018-10-15T17:41:52.938Z,96864.69
2018-10-15T17:44:20.431Z,96868.80
2018-10-15T17:46:47.928Z,96870.05
2018-10-15T17:49:15.435Z,96866.05
2018-10-15T17:51:43.042Z,96869.54
2018-10-15T17:54:10.556Z,96867.41
2018-10-15T17:56:38.035Z,96866.90
2018-10-15T17:59:05.506Z,96868.17
2018-10-15T18:01:33.001Z,96876.98
2018-10-15T18:04:02.192Z,96862.97
2018-10-15T18:06:29.678Z,96865.91
2018-10-15T18:08:57.179Z,96858.14
2018-10-15T18:11:25.695Z,96865.02
2018-10-15T18:13:53.530Z,96865.06
2018-10-15T18:16:21.246Z,96862.41
2018-10-15T18:18:49.702Z,96856.92
2018-10-15T18:21:17.539Z,96865.12
2018-10-15T18:23:44.948Z,96872.03
2018-10-15T18:26:12.413Z,96863.88
2018-10-15T18:28:39.861Z,96869.89
2018-10-15T18:31:07.283Z,96872.90
2018-10-15T18:33:34.706Z,96874.05
2018-10-15T18:36:02.134Z,96877.92
2018-10-15T18:38:29.537Z,96880.80
2018-10-15T18:40:57.006Z,96874.95
2018-10-15T18:43:24.495Z,96874.77
2018-10-15T18:45:51.979Z,96877.95
2018-10-15T18:48:19.536Z,96876.86
2018-10-15T18:50:46.939Z,96880.65
2018-10-15T18:53:14.321Z,96880.09
2018-10-15T18:55:41.682Z,96883.10
2018-10-15T18:58:09.052Z,96885.85
2018-10-15T19:00:36.460Z,96888.73
2018-10-15T19:03:03.939Z,96891.37
2018-10-15T19:05:31.437Z,96887.48
2018-10-15T19:07:58.758Z,96890.48
2018-10-15T19:10:26.329Z,96892.04
2018-10-15T19:12:53.738Z,96885.51
2018-10-15T19:15:21.119Z,96888.89
2018-10-15T19:17:48.631Z,96883.14
2018-10-15T19:20:16.250Z,96882.98
2018-10-15T19:22:44.127Z,96887.84
2018-10-15T19:25:11.553Z,96889.73
2018-10-15T19:27:39.059Z,96888.34
2018-10-15T19:30:08.089Z,96886.91
2018-10-15T19:32:35.606Z,96887.28
2018-10-15T19:35:11.518Z,96890.15
2018-10-15T19:37:39.890Z,96893.94
2018-10-15T19:40:07.437Z,96890.36
2018-10-15T19:42:35.047Z,96893.58
2018-10-15T19:45:02.904Z,96895.09
2018-10-15T19:47:30.465Z,96894.22
2018-10-15T19:49:57.854Z,96905.66
2018-10-15T19:52:25.343Z,96909.27
2018-10-15T19:54:52.676Z,96909.13
2018-10-15T19:57:20.179Z,96908.83
2018-10-15T19:59:47.671Z,96910.44
2018-10-15T20:02:15.290Z,96913.23
2018-10-15T20:04:43.632Z,96908.33
2018-10-15T20:07:11.182Z,96901.98
2018-10-15T20:09:38.617Z,96906.48
2018-10-15T20:12:06.049Z,96904.95
2018-10-15T20:14:33.641Z,96901.14
2018-10-15T20:17:01.171Z,96905.80
2018-10-15T20:19:28.725Z,96903.84
2018-10-15T20:21:56.465Z,96903.47
2018-10-15T20:24:24.113Z,96894.30
2018-10-15T20:26:51.564Z,96895.61
2018-10-15T20:29:19.119Z,96898.09
2018-10-15T20:31:48.919Z,96894.58
2018-10-15T20:34:17.459Z,96898.46
2018-10-15T20:36:45.374Z,96900.01
2018-10-15T20:39:15.955Z,96903.55
2018-10-15T20:41:44.319Z,96904.48
2018-10-15T20:44:12.103Z,96899.34
2018-10-15T20:46:40.300Z,96894.23
2018-10-15T20:49:09.280Z,96645.91
2018-10-15T20:51:38.721Z,96906.73
2018-10-15T20:54:07.270Z,96905.41
2018-10-15T20:56:35.003Z,96906.34
2018-10-15T20:59:02.771Z,96906.67
2018-10-15T21:01:30.413Z,96908.66
2018-10-15T21:03:58.382Z,96914.67
2018-10-15T21:06:26.222Z,96912.62
2018-10-15T21:08:54.044Z,96913.08
2018-10-15T21:11:21.764Z,96905.00
2018-10-15T21:13:49.585Z,96906.74
2018-10-15T21:16:17.326Z,96901.92
2018-10-15T21:18:45.146Z,96905.89
2018-10-15T21:21:12.785Z,96912.66
2018-10-15T21:23:40.547Z,96921.55
2018-10-15T21:26:08.509Z,96913.58
2018-10-15T21:28:36.345Z,96918.64
2018-10-15T21:31:04.409Z,96912.31
2018-10-15T21:33:32.111Z,96914.60
2018-10-15T21:35:59.867Z,96918.12
2018-10-15T21:38:27.706Z,96924.22
2018-10-15T21:40:55.952Z,96922.13
2018-10-15T21:43:23.652Z,96924.84
2018-10-15T21:45:51.484Z,96927.41
2018-10-15T21:48:19.151Z,96929.55
2018-10-15T21:50:48.122Z,96932.30
2018-10-15T21:53:16.241Z,96929.15
2018-10-15T21:55:44.028Z,96929.38
2018-10-15T21:58:11.972Z,96934.97
2018-10-15T22:00:44.365Z,96929.41
2018-10-15T22:03:12.344Z,96931.97
2018-10-15T22:05:39.975Z,96935.17
2018-10-15T22:08:07.981Z,96932.86
2018-10-15T22:10:35.688Z,96940.38
2018-10-15T22:13:03.414Z,96937.03
2018-10-15T22:15:30.770Z,96936.59
2018-10-15T22:17:58.085Z,96939.84
2018-10-15T22:20:25.460Z,96934.63
2018-10-15T22:22:52.920Z,96938.12
2018-10-15T22:25:20.274Z,96930.75
2018-10-15T22:27:47.674Z,96931.45
2018-10-15T22:30:15.177Z,96929.36
2018-10-15T22:32:42.502Z,96940.15
2018-10-15T22:35:11.030Z,96937.75
2018-10-15T22:37:38.583Z,96942.84
2018-10-15T22:40:06.786Z,96939.80
2018-10-15T22:42:34.149Z,96927.56
2018-10-15T22:45:01.539Z,96931.14
2018-10-15T22:47:28.987Z,96927.13
2018-10-15T22:49:56.455Z,96930.48
2018-10-15T22:52:23.795Z,96932.91
2018-10-15T22:54:51.275Z,96938.30
2018-10-15T22:57:18.611Z,96940.62
2018-10-15T22:59:46.058Z,96943.72
2018-10-15T23:02:13.430Z,96939.16
2018-10-15T23:04:40.742Z,96946.58
2018-10-15T23:07:08.908Z,96950.60
2018-10-15T23:09:36.261Z,96943.88
2018-10-15T23:12:03.620Z,96946.56
2018-10-15T23:14:30.893Z,96952.55
2018-10-15T23:16:58.255Z,96949.52
2018-10-15T23:19:25.774Z,96786.58
2018-10-15T23:21:53.606Z,96952.75
2018-10-15T23:24:21.348Z,96957.64
2018-10-15T23:26:48.718Z,96956.11
2018-10-15T23:29:16.062Z,96950.06
2018-10-15T23:31:43.424Z,96946.03
2018-10-15T23:34:10.860Z,96960.35
2018-10-15T23:36:38.301Z,96952.37
2018-10-15T23:39:08.982Z,96957.83
2018-10-15T23:41:36.322Z,96967.55
2018-10-15T23:44:03.726Z,96962.80
2018-10-15T23:46:31.110Z,96965.33
2018-10-15T23:48:58.491Z,96959.67
2018-10-15T23:51:25.871Z,96960.83
2018-10-15T23:53:53.289Z,96955.56
2018-10-15T23:56:20.678Z,96962.98
2018-10-15T23:58:47.994Z,96964.70
